Aérodrome :
LOGIN :

S'inscrire | Disclaimer

   EN    FR    IT 

 










Légende :    VFR   VFR Marginal   IFR   IFR Intensif   IFR Très Intensif
Visi : 
Plafond : 
>= 8 km
>= 3000ft
5 à 8 km
1000 à 3000 ft
1500m à 5 km
500 à 1000 ft
800 à 1500m
200 à 500 ft
< 800m
< 200 ft
Symboles :   Orages  Brouillard  Fortes neiges  Fortes précipitations  Vent > 20 kt
SIGMETs :   Divers  Orages  Givrage  Turbulence  Onde Orograph.  Cendres Volcan.







- Altitude de l'aérodrome : 11 ft
- Code IATA : MJV


LELC - Murcia San Javier

DERNIER METAR :
  • 142030Z 07005KT 030V100 9999 SCT013 SCT025 27/25 Q1016 NOSIG

METARs EXPIRÉS :
  • 142000Z 08006KT 040V110 9999 BKN013 27/24 Q1016 TEMPO SCT013
  • 141947Z 07007KT 040V110 9999 BKN013 27/24 Q1016 TEMPO SCT013
  • 141930Z 08006KT 030V120 9999 SCT013 27/24 Q1015 NOSIG
  • 141900Z 07007KT 020V110 9999 SCT013 27/24 Q1015 NOSIG
  • 141830Z 07009KT 030V110 9999 SCT013 27/24 Q1015 NOSIG
  • 141800Z 07009KT 030V120 9999 SCT013 28/24 Q1015 NOSIG

TAF TAF LELC
Valide du 14 à 18h jusqu'au 15 à 18h UTC


141700Z 1418/1518 08007KT 9999 SCT020 TX30/1513Z TN24/1505Z
PROB40
TEMPO 1421/1507 BKN010
Pas de NOTAMs connus pour ce terrain.



MET'MAP, la Météo Aéronautique d'un coup d'oeil ! - Copyright ORBIFLY Décembre 2007 - Disclaimer

ORBIFLY MET'MAP TEAM :

Programmation & Développement : Alexandra Zaïnal
Conception & Développement : Baudouin d'Aumeries
Co-Programmation & Développement : Marc-Olivier Méhu
Soutien technique & logistique : Manuel Goepfert

Contact : metmap@orbifly.com




SOURCES & CREDITS :

   NOAA